createdAt,value
2018-06-10T00:00:11.178Z,20.20
2018-06-10T00:02:39.460Z,20.05
2018-06-10T00:05:07.739Z,19.81
2018-06-10T00:07:36.035Z,19.66
2018-06-10T00:10:04.322Z,19.42
2018-06-10T00:12:32.609Z,19.48
2018-06-10T00:15:00.859Z,19.38
2018-06-10T00:17:29.158Z,19.31
2018-06-10T00:19:57.420Z,19.56
2018-06-10T00:22:25.701Z,19.63
2018-06-10T00:24:54.009Z,19.48
2018-06-10T00:27:22.294Z,19.22
2018-06-10T00:29:50.563Z,19.04
2018-06-10T00:32:18.847Z,19.06
2018-06-10T00:34:47.134Z,19.35
2018-06-10T00:37:15.434Z,19.57
2018-06-10T00:39:43.785Z,19.54
2018-06-10T00:42:12.075Z,19.30
2018-06-10T00:44:40.331Z,19.02
2018-06-10T00:47:08.639Z,18.98
2018-06-10T00:49:36.882Z,18.95
2018-06-10T00:52:05.191Z,19.03
2018-06-10T00:54:33.470Z,19.18
2018-06-10T00:57:01.726Z,19.21
2018-06-10T00:59:30.030Z,19.10
2018-06-10T01:01:58.315Z,18.98
2018-06-10T01:04:26.621Z,19.09
2018-06-10T01:06:54.870Z,19.24
2018-06-10T01:09:23.173Z,19.06
2018-06-10T01:11:51.501Z,18.93
2018-06-10T01:14:19.798Z,18.74
2018-06-10T01:16:48.056Z,18.81
2018-06-10T01:19:16.471Z,18.87
2018-06-10T01:21:44.727Z,19.01
2018-06-10T01:24:13.055Z,19.09
2018-06-10T01:26:46.583Z,18.97
2018-06-10T01:29:14.866Z,19.16
2018-06-10T01:31:43.122Z,19.27
2018-06-10T01:34:11.411Z,19.24
2018-06-10T01:36:39.676Z,19.16
2018-06-10T01:39:07.958Z,18.92
2018-06-10T01:41:36.206Z,18.99
2018-06-10T01:44:04.503Z,18.91
2018-06-10T01:46:32.753Z,18.94
2018-06-10T01:49:01.051Z,18.96
2018-06-10T01:51:29.294Z,18.77
2018-06-10T01:53:57.593Z,18.79
2018-06-10T01:56:25.855Z,18.73
2018-06-10T01:58:54.228Z,18.57
2018-06-10T02:01:22.517Z,18.63
2018-06-10T02:03:50.826Z,18.81
2018-06-10T02:06:19.102Z,19.13
2018-06-10T02:08:47.453Z,19.17
2018-06-10T02:11:15.698Z,19.15
2018-06-10T02:13:43.987Z,19.17
2018-06-10T02:16:12.366Z,19.18
2018-06-10T02:18:40.670Z,19.26
2018-06-10T02:21:08.917Z,18.99
2018-06-10T02:23:37.255Z,18.68
2018-06-10T02:26:05.563Z,18.67
2018-06-10T02:28:33.859Z,18.64
2018-06-10T02:31:02.110Z,18.61
2018-06-10T02:33:30.366Z,18.60
2018-06-10T02:35:58.654Z,18.77
2018-06-10T02:38:26.960Z,18.83
2018-06-10T02:40:55.283Z,19.10
2018-06-10T02:43:23.566Z,19.28
2018-06-10T02:45:51.978Z,19.65
2018-06-10T02:48:20.239Z,19.77
2018-06-10T02:50:48.608Z,19.73
2018-06-10T02:53:16.909Z,19.77
2018-06-10T02:55:45.242Z,19.77
2018-06-10T02:58:13.497Z,19.81
2018-06-10T03:00:41.818Z,19.90
2018-06-10T03:03:10.110Z,19.89
2018-06-10T03:05:38.398Z,20.05
2018-06-10T03:08:06.684Z,20.07
2018-06-10T03:10:34.974Z,19.97
2018-06-10T03:13:03.543Z,19.98
2018-06-10T03:15:31.866Z,19.94
2018-06-10T03:18:00.131Z,19.98
2018-06-10T03:20:28.491Z,20.02
2018-06-10T03:22:56.750Z,20.13
2018-06-10T03:25:25.090Z,20.17
2018-06-10T03:27:53.362Z,20.16
2018-06-10T03:30:21.669Z,20.12
2018-06-10T03:32:49.938Z,20.21
2018-06-10T03:35:18.263Z,20.22
2018-06-10T03:37:46.535Z,20.24
2018-06-10T03:40:14.849Z,20.32
2018-06-10T03:42:43.106Z,20.19
2018-06-10T03:45:11.402Z,20.25
2018-06-10T03:47:39.653Z,20.23
2018-06-10T03:50:07.952Z,20.12
2018-06-10T03:52:36.651Z,20.21
2018-06-10T03:55:05.039Z,20.29
2018-06-10T03:57:33.640Z,20.20
2018-06-10T04:00:01.975Z,20.23
2018-06-10T04:02:30.274Z,20.25
2018-06-10T04:04:58.577Z,20.12
2018-06-10T04:07:26.859Z,20.11
2018-06-10T04:09:55.190Z,20.09
2018-06-10T04:12:23.441Z,19.98
2018-06-10T04:14:51.706Z,19.88
2018-06-10T04:17:20.130Z,19.92
2018-06-10T04:19:48.382Z,19.93
2018-06-10T04:22:16.670Z,19.98
2018-06-10T04:24:44.937Z,20.04
2018-06-10T04:27:13.286Z,19.96
2018-06-10T04:29:41.577Z,19.86
2018-06-10T04:32:09.867Z,19.91
2018-06-10T04:34:38.109Z,20.00
2018-06-10T04:37:06.400Z,19.98
2018-06-10T04:42:02.005Z,19.93
2018-06-10T04:44:30.258Z,19.94
2018-06-10T04:46:58.602Z,20.05
2018-06-10T04:49:26.863Z,19.87
2018-06-10T04:51:55.175Z,20.15
2018-06-10T04:54:23.442Z,20.14
2018-06-10T04:56:51.727Z,20.14
2018-06-10T04:59:19.973Z,20.17
2018-06-10T05:01:48.262Z,20.00
2018-06-10T05:04:16.505Z,20.14
2018-06-10T05:06:44.802Z,20.19
2018-06-10T05:09:13.056Z,20.29
2018-06-10T05:11:41.346Z,20.28
2018-06-10T05:14:09.611Z,20.30
2018-06-10T05:16:37.925Z,20.34
2018-06-10T05:19:06.176Z,20.32
2018-06-10T05:21:34.492Z,20.39
2018-06-10T05:24:02.837Z,20.38
2018-06-10T05:26:31.235Z,20.37
2018-06-10T05:29:02.541Z,20.36
2018-06-10T05:31:31.286Z,20.58
2018-06-10T05:33:59.546Z,20.60
2018-06-10T05:36:27.894Z,20.52
2018-06-10T05:38:56.254Z,20.77
2018-06-10T05:41:24.551Z,20.76
2018-06-10T05:43:52.800Z,20.77
2018-06-10T05:46:21.110Z,20.85
2018-06-10T05:48:49.425Z,20.43
2018-06-10T05:51:17.777Z,20.45
2018-06-10T05:53:46.055Z,20.63
2018-06-10T05:56:14.314Z,20.73
2018-06-10T05:58:42.860Z,20.46
2018-06-10T06:01:11.126Z,20.65
2018-06-10T06:03:39.422Z,20.51
2018-06-10T06:06:07.694Z,20.68
2018-06-10T06:08:36.018Z,20.63
2018-06-10T06:11:04.289Z,20.59
2018-06-10T06:13:32.590Z,20.76
2018-06-10T06:16:00.881Z,20.90
2018-06-10T06:18:29.230Z,20.53
2018-06-10T06:20:57.552Z,20.49
2018-06-10T06:23:25.859Z,20.31
2018-06-10T06:25:54.186Z,20.56
2018-06-10T06:28:22.493Z,20.75
2018-06-10T06:30:50.755Z,20.46
2018-06-10T06:33:19.474Z,20.66
2018-06-10T06:35:47.710Z,20.65
2018-06-10T06:38:16.007Z,20.54
2018-06-10T06:40:44.258Z,20.65
2018-06-10T06:43:12.585Z,20.65
2018-06-10T06:45:40.927Z,20.78
2018-06-10T06:48:09.485Z,20.55
2018-06-10T06:50:37.980Z,20.52
2018-06-10T06:53:06.355Z,20.53
2018-06-10T06:55:34.730Z,20.35
2018-06-10T06:58:03.329Z,20.25
2018-06-10T07:00:31.721Z,20.29
2018-06-10T07:03:00.138Z,20.25
2018-06-10T07:05:28.434Z,20.41
2018-06-10T07:07:56.858Z,20.24
2018-06-10T07:10:25.195Z,20.23
2018-06-10T07:12:53.529Z,20.12
2018-06-10T07:15:21.778Z,19.87
2018-06-10T07:17:50.068Z,19.95
2018-06-10T07:20:18.858Z,19.91
2018-06-10T07:22:47.301Z,19.85
2018-06-10T07:25:15.560Z,19.97
2018-06-10T07:27:44.011Z,20.11
2018-06-10T07:30:12.394Z,19.82
2018-06-10T07:32:40.700Z,20.04
2018-06-10T07:35:09.021Z,20.14
2018-06-10T07:37:37.266Z,20.16
2018-06-10T07:40:05.575Z,19.93
2018-06-10T07:42:33.898Z,19.92
2018-06-10T07:45:02.224Z,19.98
2018-06-10T07:47:30.643Z,20.02
2018-06-10T07:49:58.997Z,19.78
2018-06-10T07:52:27.312Z,20.08
2018-06-10T07:54:55.609Z,20.15
2018-06-10T07:57:23.857Z,20.09
2018-06-10T07:59:52.325Z,20.15
2018-06-10T08:02:20.581Z,20.04
2018-06-10T08:04:48.955Z,20.04
2018-06-10T08:07:17.534Z,20.06
2018-06-10T08:09:45.852Z,20.07
2018-06-10T08:12:14.136Z,19.96
2018-06-10T08:14:42.446Z,19.88
2018-06-10T08:17:10.711Z,20.11
2018-06-10T08:19:39.103Z,19.99
2018-06-10T08:22:07.428Z,19.87
2018-06-10T08:24:35.719Z,20.06
2018-06-10T08:27:04.022Z,20.11
2018-06-10T08:29:32.328Z,20.29
2018-06-10T08:32:00.694Z,20.05
2018-06-10T08:34:29.061Z,19.99
2018-06-10T08:36:57.334Z,20.02
2018-06-10T08:39:25.634Z,20.00
2018-06-10T08:41:53.895Z,20.16
2018-06-10T08:44:22.218Z,20.24
2018-06-10T08:46:50.534Z,20.10
2018-06-10T08:49:18.836Z,20.10
2018-06-10T08:51:48.186Z,20.07
2018-06-10T08:54:16.530Z,20.05
2018-06-10T08:56:44.794Z,20.22
2018-06-10T08:59:13.146Z,20.09
2018-06-10T09:01:41.483Z,19.83
2018-06-10T09:04:09.779Z,19.79
2018-06-10T09:06:38.049Z,19.89
2018-06-10T09:09:08.952Z,19.98
2018-06-10T09:11:37.777Z,19.94
2018-06-10T09:14:06.074Z,19.78
2018-06-10T09:16:34.482Z,19.88
2018-06-10T09:19:02.802Z,19.70
2018-06-10T09:21:31.422Z,19.83
2018-06-10T09:24:00.055Z,19.96
2018-06-10T09:26:28.342Z,19.69
2018-06-10T09:28:56.615Z,19.81
2018-06-10T09:31:24.915Z,19.47
2018-06-10T09:33:54.658Z,19.51
2018-06-10T09:36:23.494Z,19.56
2018-06-10T09:38:52.050Z,19.46
2018-06-10T09:41:20.346Z,19.33
2018-06-10T09:43:48.725Z,19.55
2018-06-10T09:46:17.158Z,19.20
2018-06-10T09:48:45.530Z,19.35
2018-06-10T09:51:13.958Z,19.41
2018-06-10T09:53:42.210Z,19.32
2018-06-10T09:56:10.506Z,19.54
2018-06-10T09:58:38.902Z,19.81
2018-06-10T10:01:07.204Z,19.58
2018-06-10T10:03:35.552Z,19.32
2018-06-10T10:06:04.168Z,19.56
2018-06-10T10:08:32.498Z,19.48
2018-06-10T10:11:00.813Z,19.70
2018-06-10T10:13:29.074Z,20.08
2018-06-10T10:15:57.430Z,20.42
2018-06-10T10:18:25.712Z,20.76
2018-06-10T10:20:54.032Z,20.73
2018-06-10T10:23:22.295Z,20.35
2018-06-10T10:25:50.579Z,20.19
2018-06-10T10:28:18.883Z,20.11
2018-06-10T10:30:47.155Z,20.16
2018-06-10T10:33:15.446Z,20.73
2018-06-10T10:35:43.901Z,20.85
2018-06-10T10:38:12.270Z,20.76
2018-06-10T10:40:40.632Z,21.09
2018-06-10T10:43:08.973Z,21.11
2018-06-10T10:45:37.288Z,21.24
2018-06-10T10:48:05.618Z,21.13
2018-06-10T10:50:34.130Z,21.66
2018-06-10T10:53:02.427Z,21.84
2018-06-10T10:55:30.746Z,21.29
2018-06-10T10:57:59.062Z,20.62
2018-06-10T11:00:27.427Z,20.82
2018-06-10T11:02:55.781Z,21.61
2018-06-10T11:05:24.080Z,21.14
2018-06-10T11:07:53.127Z,21.63
2018-06-10T11:10:21.432Z,22.33
2018-06-10T11:12:49.842Z,22.76
2018-06-10T11:15:18.263Z,21.75
2018-06-10T11:17:46.623Z,22.33
2018-06-10T11:20:15.050Z,21.55
2018-06-10T11:22:43.339Z,21.65
2018-06-10T11:25:11.779Z,21.92
2018-06-10T11:27:40.777Z,21.69
2018-06-10T11:30:09.330Z,22.21
2018-06-10T11:32:37.612Z,22.53
2018-06-10T11:35:05.922Z,22.66
2018-06-10T11:37:34.258Z,21.54
2018-06-10T11:40:02.664Z,21.55
2018-06-10T11:42:31.284Z,21.42
2018-06-10T11:45:00.327Z,21.96
2018-06-10T11:47:28.657Z,22.07
2018-06-10T11:49:56.917Z,21.62
2018-06-10T11:52:25.230Z,22.06
2018-06-10T11:54:53.751Z,22.05
2018-06-10T11:57:22.654Z,22.17
2018-06-10T11:59:50.938Z,22.33
2018-06-10T12:02:19.259Z,22.48
2018-06-10T12:04:47.586Z,21.68
2018-06-10T12:07:15.926Z,22.01
2018-06-10T12:09:44.258Z,22.15
2018-06-10T12:12:12.624Z,21.87
2018-06-10T12:14:40.962Z,22.14
2018-06-10T12:17:09.336Z,22.41
2018-06-10T12:19:37.635Z,22.45
2018-06-10T12:22:05.934Z,22.35
2018-06-10T12:24:34.306Z,22.21
2018-06-10T12:27:02.679Z,22.38
2018-06-10T12:29:30.981Z,22.88
2018-06-10T12:31:59.720Z,22.41
2018-06-10T12:34:28.361Z,22.89
2018-06-10T12:37:00.877Z,22.52
2018-06-10T12:39:38.465Z,22.85
2018-06-10T12:43:27.568Z,23.15
2018-06-10T12:48:53.515Z,22.89
2018-06-10T12:51:31.357Z,22.20
2018-06-10T12:54:01.214Z,22.54
2018-06-10T12:56:39.013Z,23.19
2018-06-10T12:59:09.837Z,22.92
2018-06-10T13:01:38.392Z,22.76
2018-06-10T13:04:07.076Z,22.78
2018-06-10T13:06:35.818Z,23.13
2018-06-10T13:09:06.795Z,22.77
2018-06-10T13:11:35.542Z,23.19
2018-06-10T13:14:06.481Z,22.94
2018-06-10T13:16:37.163Z,23.42
2018-06-10T13:19:06.918Z,23.65
2018-06-10T13:21:42.570Z,23.90
2018-06-10T13:24:12.366Z,23.88
2018-06-10T13:26:44.640Z,23.77
2018-06-10T13:29:18.338Z,23.59
2018-06-10T13:31:47.130Z,23.50
2018-06-10T13:34:18.897Z,23.59
2018-06-10T13:36:58.204Z,23.46
2018-06-10T13:39:31.260Z,23.22
2018-06-10T13:42:12.749Z,23.35
2018-06-10T13:44:45.730Z,23.24
2018-06-10T13:50:05.800Z,23.47
2018-06-10T13:52:35.922Z,23.41
2018-06-10T13:55:16.858Z,23.19
2018-06-10T13:57:45.341Z,23.52
2018-06-10T14:00:24.453Z,23.89
2018-06-10T14:02:53.776Z,23.94
2018-06-10T14:05:23.432Z,23.58
2018-06-10T14:08:14.297Z,24.34
2018-06-10T14:10:45.505Z,24.62
2018-06-10T14:13:14.428Z,23.90
2018-06-10T14:16:22.472Z,24.08
2018-06-10T14:18:52.382Z,24.04
2018-06-10T14:21:21.875Z,23.80
2018-06-10T14:23:59.852Z,23.78
2018-06-10T14:26:48.626Z,23.65
2018-06-10T14:29:17.744Z,23.53
2018-06-10T14:31:53.338Z,23.41
2018-06-10T14:34:23.872Z,23.55
2018-06-10T14:36:53.363Z,23.36
2018-06-10T14:39:30.970Z,23.07
2018-06-10T14:42:02.232Z,23.24
2018-06-10T14:44:36.312Z,23.19
2018-06-10T14:47:10.268Z,23.23
2018-06-10T14:49:43.339Z,23.18
2018-06-10T14:52:15.196Z,23.05
2018-06-10T14:54:47.885Z,23.16
2018-06-10T14:57:27.150Z,22.92
2018-06-10T14:59:59.246Z,22.93
2018-06-10T15:02:28.306Z,22.71
2018-06-10T15:04:59.113Z,22.97
2018-06-10T15:07:28.160Z,22.90
2018-06-10T15:10:06.011Z,23.01
2018-06-10T15:12:35.566Z,22.94
2018-06-10T15:15:06.216Z,22.58
2018-06-10T15:17:37.483Z,22.84
2018-06-10T15:20:19.140Z,22.95
2018-06-10T15:22:54.822Z,22.99
2018-06-10T15:25:26.688Z,22.56
2018-06-10T15:27:55.347Z,22.61
2018-06-10T15:30:23.931Z,22.55
2018-06-10T15:32:53.787Z,22.92
2018-06-10T15:38:30.202Z,22.96
2018-06-10T15:41:10.365Z,23.21
2018-06-10T15:46:36.517Z,23.41
2018-06-10T15:49:05.362Z,24.04
2018-06-10T15:51:35.654Z,23.71
2018-06-10T15:54:05.682Z,23.81
2018-06-10T15:56:38.678Z,23.59
2018-06-10T15:59:14.120Z,23.36
2018-06-10T16:02:03.759Z,23.64
2018-06-10T16:04:36.655Z,22.93
2018-06-10T16:07:10.924Z,23.28
2018-06-10T16:09:40.792Z,23.50
2018-06-10T16:12:09.966Z,23.55
2018-06-10T16:14:43.388Z,23.95
2018-06-10T16:17:12.456Z,23.39
2018-06-10T16:19:47.520Z,23.99
2018-06-10T16:22:17.299Z,24.07
2018-06-10T16:24:45.826Z,23.59
2018-06-10T16:27:14.863Z,23.63
2018-06-10T16:29:44.107Z,23.51
2018-06-10T16:32:14.563Z,23.33
2018-06-10T16:34:43.859Z,22.95
2018-06-10T16:37:13.022Z,23.13
2018-06-10T16:39:47.060Z,23.01
2018-06-10T16:42:17.351Z,23.15
2018-06-10T16:44:47.066Z,23.15
2018-06-10T16:47:17.161Z,23.00
2018-06-10T16:49:47.418Z,22.90
2018-06-10T16:52:16.099Z,22.95
2018-06-10T16:54:46.948Z,22.70
2018-06-10T16:57:16.106Z,22.77
2018-06-10T16:59:48.637Z,22.62
2018-06-10T17:02:17.365Z,22.75
2018-06-10T17:04:47.150Z,22.57
2018-06-10T17:07:24.065Z,22.80
2018-06-10T17:12:29.578Z,22.80
2018-06-10T17:14:59.715Z,22.63
2018-06-10T17:17:31.826Z,22.60
2018-06-10T17:20:01.262Z,22.77
2018-06-10T17:22:35.260Z,22.90
2018-06-10T17:25:07.503Z,23.21
2018-06-10T17:27:42.374Z,22.67
2018-06-10T17:30:32.930Z,22.78
2018-06-10T17:33:05.315Z,22.61
2018-06-10T17:35:47.661Z,22.68
2018-06-10T17:38:16.860Z,22.75
2018-06-10T17:40:46.104Z,23.06
2018-06-10T17:43:17.797Z,23.41
2018-06-10T17:45:57.909Z,23.37
2018-06-10T17:48:50.544Z,22.84
2018-06-10T17:51:22.323Z,22.78
2018-06-10T17:54:21.804Z,22.94
2018-06-10T17:56:54.567Z,22.71
2018-06-10T18:02:11.590Z,22.45
2018-06-10T18:04:47.789Z,22.46
2018-06-10T18:07:24.060Z,22.44
2018-06-10T18:10:04.372Z,22.30
2018-06-10T18:12:42.849Z,22.51
2018-06-10T18:15:21.784Z,22.22
2018-06-10T18:17:52.685Z,22.25
2018-06-10T18:20:22.654Z,22.14
2018-06-10T18:22:52.411Z,21.91
2018-06-10T18:25:21.316Z,21.98
2018-06-10T18:27:55.154Z,21.83
2018-06-10T18:30:28.629Z,21.69
2018-06-10T18:32:57.389Z,21.67
2018-06-10T18:35:27.558Z,21.80
2018-06-10T18:37:56.641Z,21.66
2018-06-10T18:40:35.265Z,21.54
2018-06-10T18:43:04.905Z,21.52
2018-06-10T18:45:36.754Z,21.66
2018-06-10T18:48:08.792Z,21.65
2018-06-10T18:50:39.533Z,21.67
2018-06-10T18:53:20.372Z,21.52
2018-06-10T18:55:58.735Z,21.42
2018-06-10T18:58:32.463Z,21.39
2018-06-10T19:01:07.347Z,21.18
2018-06-10T19:03:40.107Z,21.30
2018-06-10T19:06:15.277Z,21.30
2018-06-10T19:08:46.407Z,21.21
2018-06-10T19:11:18.153Z,21.19
2018-06-10T19:13:58.129Z,21.02
2018-06-10T19:19:21.676Z,20.91
2018-06-10T19:22:03.669Z,20.89
2018-06-10T19:24:39.400Z,20.66
2018-06-10T19:27:11.191Z,20.71
2018-06-10T19:30:29.563Z,20.67
2018-06-10T19:33:55.783Z,20.49
2018-06-10T19:36:27.763Z,20.52
2018-06-10T19:39:14.246Z,20.46
2018-06-10T19:42:00.144Z,20.35
2018-06-10T19:44:41.212Z,20.18
2018-06-10T19:47:13.625Z,19.96
2018-06-10T19:52:33.769Z,19.72
2018-06-10T19:55:06.968Z,19.39
2018-06-10T19:57:36.990Z,19.15
2018-06-10T20:00:06.101Z,18.88
2018-06-10T20:02:37.712Z,18.99
2018-06-10T20:05:09.977Z,18.89
2018-06-10T20:07:38.716Z,19.02
2018-06-10T20:10:07.994Z,19.06
2018-06-10T20:12:37.027Z,19.20
2018-06-10T20:15:16.093Z,19.28
2018-06-10T20:18:16.286Z,19.01
2018-06-10T20:20:46.248Z,19.07
2018-06-10T20:23:14.884Z,18.90
2018-06-10T20:25:45.064Z,18.87
2018-06-10T20:28:20.281Z,18.72
2018-06-10T20:30:49.673Z,18.57
2018-06-10T20:33:32.899Z,18.56
2018-06-10T20:36:02.720Z,18.46
2018-06-10T20:38:36.849Z,18.58
2018-06-10T20:41:06.742Z,18.75
2018-06-10T20:43:40.679Z,18.68
2018-06-10T20:46:09.907Z,18.55
2018-06-10T20:48:40.265Z,18.45
2018-06-10T20:51:21.487Z,18.45
2018-06-10T20:56:40.217Z,18.67
2018-06-10T20:59:08.915Z,18.52
2018-06-10T21:01:47.059Z,18.46
2018-06-10T21:04:26.822Z,18.45
2018-06-10T21:06:57.433Z,18.31
2018-06-10T21:09:39.191Z,18.46
2018-06-10T21:12:32.258Z,18.54
2018-06-10T21:18:35.109Z,18.23
2018-06-10T21:24:04.533Z,18.58
2018-06-10T21:26:35.622Z,18.59
2018-06-10T21:29:08.346Z,18.60
2018-06-10T21:31:38.870Z,18.44
2018-06-10T21:34:08.747Z,18.28
2018-06-10T21:36:39.487Z,18.38
2018-06-10T21:39:10.958Z,18.38
2018-06-10T21:41:41.107Z,18.22
2018-06-10T21:44:11.315Z,18.13
2018-06-10T21:46:40.225Z,18.11
2018-06-10T21:49:09.407Z,18.15
2018-06-10T21:51:41.830Z,18.10
2018-06-10T21:54:13.325Z,17.81
2018-06-10T21:56:45.067Z,18.00
2018-06-10T21:59:14.642Z,18.03
2018-06-10T22:01:44.492Z,18.03
2018-06-10T22:04:13.231Z,17.95
2018-06-10T22:06:42.739Z,17.89
2018-06-10T22:09:12.149Z,17.89
2018-06-10T22:11:41.557Z,17.98
2018-06-10T22:14:11.066Z,18.15
2018-06-10T22:16:39.967Z,18.09
2018-06-10T22:19:09.196Z,18.08
2018-06-10T22:24:20.766Z,17.84
2018-06-10T22:26:49.282Z,17.83
2018-06-10T22:29:18.846Z,17.84
2018-06-10T22:31:56.902Z,17.82
2018-06-10T22:34:26.376Z,17.81
2018-06-10T22:36:56.585Z,17.86
2018-06-10T22:39:26.322Z,17.86
2018-06-10T22:42:19.900Z,17.62
2018-06-10T22:44:48.532Z,17.68
2018-06-10T22:47:17.710Z,17.82
2018-06-10T22:49:46.469Z,17.88
2018-06-10T22:52:14.865Z,17.71
2018-06-10T22:54:46.867Z,17.76
2018-06-10T22:57:27.844Z,17.64
2018-06-10T22:59:58.357Z,17.39
2018-06-10T23:02:29.135Z,17.28
2018-06-10T23:04:57.945Z,17.23
2018-06-10T23:07:26.366Z,17.34
2018-06-10T23:09:54.735Z,17.45
2018-06-10T23:12:23.292Z,17.42
2018-06-10T23:14:52.623Z,17.61
2018-06-10T23:17:21.133Z,17.54
2018-06-10T23:19:49.514Z,17.59
2018-06-10T23:22:17.985Z,17.37
2018-06-10T23:24:50.033Z,17.35
2018-06-10T23:27:25.187Z,17.18
2018-06-10T23:29:53.571Z,17.19
2018-06-10T23:32:21.987Z,16.96
2018-06-10T23:34:50.663Z,16.99
2018-06-10T23:37:19.180Z,17.04
2018-06-10T23:39:48.079Z,16.88
2018-06-10T23:42:16.461Z,16.84
2018-06-10T23:44:44.975Z,16.89
2018-06-10T23:47:13.523Z,16.71
2018-06-10T23:49:42.849Z,16.70
2018-06-10T23:52:11.819Z,16.77
2018-06-10T23:54:40.257Z,16.71
2018-06-10T23:57:08.677Z,16.74
2018-06-10T23:59:38.138Z,16.72
